sensor_id;sensor_type;location;lat;lon;timestamp;P1;durP1;ratioP1;P2;durP2;ratioP2
77870;SDS011;67067;46.850;7.578;2024-03-08T00:00:11;17.88;;;7.95;;
77870;SDS011;67067;46.850;7.578;2024-03-08T00:01:16;15.82;;;6.57;;
77870;SDS011;67067;46.850;7.578;2024-03-08T00:02:20;14.00;;;6.80;;
77870;SDS011;67067;46.850;7.578;2024-03-08T00:04:24;13.63;;;6.70;;
77870;SDS011;67067;46.850;7.578;2024-03-08T00:05:26;14.30;;;6.47;;
77870;SDS011;67067;46.850;7.578;2024-03-08T00:06:28;14.18;;;6.88;;
77870;SDS011;67067;46.850;7.578;2024-03-08T00:08:32;17.50;;;7.38;;
77870;SDS011;67067;46.850;7.578;2024-03-08T00:09:33;20.25;;;8.68;;
77870;SDS011;67067;46.850;7.578;2024-03-08T00:10:35;23.27;;;9.45;;
77870;SDS011;67067;46.850;7.578;2024-03-08T00:11:37;15.68;;;6.95;;
77870;SDS011;67067;46.850;7.578;2024-03-08T00:12:45;14.60;;;7.13;;
77870;SDS011;67067;46.850;7.578;2024-03-08T00:13:49;19.52;;;7.70;;
77870;SDS011;67067;46.850;7.578;2024-03-08T00:14:51;19.05;;;8.38;;
77870;SDS011;67067;46.850;7.578;2024-03-08T00:15:53;14.98;;;7.40;;
77870;SDS011;67067;46.850;7.578;2024-03-08T00:16:57;16.92;;;7.47;;
77870;SDS011;67067;46.850;7.578;2024-03-08T00:17:58;12.82;;;6.25;;
77870;SDS011;67067;46.850;7.578;2024-03-08T00:19:01;15.25;;;7.45;;
77870;SDS011;67067;46.850;7.578;2024-03-08T00:20:03;14.02;;;6.90;;
77870;SDS011;67067;46.850;7.578;2024-03-08T00:21:09;12.80;;;6.38;;
77870;SDS011;67067;46.850;7.578;2024-03-08T00:22:13;16.88;;;6.97;;
77870;SDS011;67067;46.850;7.578;2024-03-08T00:24:17;14.45;;;6.40;;
77870;SDS011;67067;46.850;7.578;2024-03-08T00:25:19;12.65;;;6.30;;
77870;SDS011;67067;46.850;7.578;2024-03-08T00:26:21;15.27;;;7.03;;
77870;SDS011;67067;46.850;7.578;2024-03-08T00:27:26;14.25;;;6.55;;
77870;SDS011;67067;46.850;7.578;2024-03-08T00:28:27;15.95;;;7.22;;
77870;SDS011;67067;46.850;7.578;2024-03-08T00:29:29;15.50;;;6.40;;
77870;SDS011;67067;46.850;7.578;2024-03-08T00:30:31;14.50;;;7.05;;
77870;SDS011;67067;46.850;7.578;2024-03-08T00:31:36;13.63;;;6.57;;
77870;SDS011;67067;46.850;7.578;2024-03-08T00:32:37;15.60;;;6.70;;
77870;SDS011;67067;46.850;7.578;2024-03-08T00:33:40;15.70;;;7.20;;
77870;SDS011;67067;46.850;7.578;2024-03-08T00:34:44;13.60;;;6.38;;
77870;SDS011;67067;46.850;7.578;2024-03-08T00:36:53;13.13;;;6.50;;
77870;SDS011;67067;46.850;7.578;2024-03-08T00:37:55;13.30;;;6.38;;
77870;SDS011;67067;46.850;7.578;2024-03-08T00:38:58;11.77;;;6.00;;
77870;SDS011;67067;46.850;7.578;2024-03-08T00:40:02;13.52;;;6.65;;
77870;SDS011;67067;46.850;7.578;2024-03-08T00:41:04;10.98;;;6.05;;
77870;SDS011;67067;46.850;7.578;2024-03-08T00:43:10;11.40;;;5.65;;
77870;SDS011;67067;46.850;7.578;2024-03-08T00:45:13;12.77;;;5.80;;
77870;SDS011;67067;46.850;7.578;2024-03-08T00:46:20;11.45;;;5.90;;
77870;SDS011;67067;46.850;7.578;2024-03-08T00:48:23;13.93;;;6.00;;
77870;SDS011;67067;46.850;7.578;2024-03-08T00:49:25;12.68;;;5.85;;
77870;SDS011;67067;46.850;7.578;2024-03-08T00:50:27;12.65;;;5.85;;
77870;SDS011;67067;46.850;7.578;2024-03-08T00:51:32;11.20;;;5.68;;
77870;SDS011;67067;46.850;7.578;2024-03-08T00:52:34;11.43;;;6.13;;
77870;SDS011;67067;46.850;7.578;2024-03-08T00:53:36;10.38;;;5.50;;
77870;SDS011;67067;46.850;7.578;2024-03-08T00:54:38;13.40;;;6.00;;
77870;SDS011;67067;46.850;7.578;2024-03-08T00:55:40;11.40;;;6.32;;
77870;SDS011;67067;46.850;7.578;2024-03-08T00:57:43;10.77;;;5.40;;
77870;SDS011;67067;46.850;7.578;2024-03-08T00:58:45;12.40;;;5.85;;
77870;SDS011;67067;46.850;7.578;2024-03-08T00:59:47;10.68;;;5.60;;
77870;SDS011;67067;46.850;7.578;2024-03-08T01:00:49;9.75;;;5.20;;
77870;SDS011;67067;46.850;7.578;2024-03-08T01:01:51;11.88;;;5.50;;
77870;SDS011;67067;46.850;7.578;2024-03-08T01:03:55;9.20;;;5.47;;
77870;SDS011;67067;46.850;7.578;2024-03-08T01:04:58;10.40;;;5.50;;
77870;SDS011;67067;46.850;7.578;2024-03-08T01:06:02;9.48;;;5.38;;
77870;SDS011;67067;46.850;7.578;2024-03-08T01:07:06;9.18;;;5.20;;
77870;SDS011;67067;46.850;7.578;2024-03-08T01:08:08;12.48;;;5.55;;
77870;SDS011;67067;46.850;7.578;2024-03-08T01:09:16;10.77;;;5.38;;
77870;SDS011;67067;46.850;7.578;2024-03-08T01:10:18;13.05;;;5.90;;
77870;SDS011;67067;46.850;7.578;2024-03-08T01:11:20;10.77;;;5.45;;
77870;SDS011;67067;46.850;7.578;2024-03-08T01:12:22;12.05;;;5.60;;
77870;SDS011;67067;46.850;7.578;2024-03-08T01:13:24;11.70;;;5.75;;
77870;SDS011;67067;46.850;7.578;2024-03-08T01:14:26;13.10;;;6.63;;
77870;SDS011;67067;46.850;7.578;2024-03-08T01:15:28;11.45;;;6.13;;
77870;SDS011;67067;46.850;7.578;2024-03-08T01:16:32;14.55;;;6.43;;
77870;SDS011;67067;46.850;7.578;2024-03-08T01:17:37;13.07;;;6.15;;
77870;SDS011;67067;46.850;7.578;2024-03-08T01:18:40;11.45;;;6.10;;
77870;SDS011;67067;46.850;7.578;2024-03-08T01:19:43;13.65;;;5.95;;
77870;SDS011;67067;46.850;7.578;2024-03-08T01:20:46;11.75;;;6.03;;
77870;SDS011;67067;46.850;7.578;2024-03-08T01:21:48;11.02;;;5.45;;
77870;SDS011;67067;46.850;7.578;2024-03-08T01:23:51;13.60;;;6.03;;
77870;SDS011;67067;46.850;7.578;2024-03-08T01:24:53;15.45;;;6.95;;
77870;SDS011;67067;46.850;7.578;2024-03-08T01:26:58;12.93;;;6.10;;
77870;SDS011;67067;46.850;7.578;2024-03-08T01:28:01;12.73;;;5.95;;
77870;SDS011;67067;46.850;7.578;2024-03-08T01:29:04;13.55;;;6.18;;
77870;SDS011;67067;46.850;7.578;2024-03-08T01:30:06;12.27;;;6.00;;
77870;SDS011;67067;46.850;7.578;2024-03-08T01:31:08;11.98;;;5.90;;
77870;SDS011;67067;46.850;7.578;2024-03-08T01:33:11;13.02;;;5.90;;
77870;SDS011;67067;46.850;7.578;2024-03-08T01:34:13;12.68;;;6.47;;
77870;SDS011;67067;46.850;7.578;2024-03-08T01:35:15;12.98;;;5.97;;
77870;SDS011;67067;46.850;7.578;2024-03-08T01:36:17;10.88;;;5.55;;
77870;SDS011;67067;46.850;7.578;2024-03-08T01:37:20;12.15;;;5.97;;
77870;SDS011;67067;46.850;7.578;2024-03-08T01:38:22;10.95;;;6.00;;
77870;SDS011;67067;46.850;7.578;2024-03-08T01:39:24;11.82;;;5.97;;
77870;SDS011;67067;46.850;7.578;2024-03-08T01:40:28;13.05;;;6.40;;
77870;SDS011;67067;46.850;7.578;2024-03-08T01:41:30;13.13;;;6.47;;
77870;SDS011;67067;46.850;7.578;2024-03-08T01:42:32;10.93;;;5.65;;
77870;SDS011;67067;46.850;7.578;2024-03-08T01:44:35;11.60;;;5.68;;
77870;SDS011;67067;46.850;7.578;2024-03-08T01:45:37;10.43;;;5.70;;
77870;SDS011;67067;46.850;7.578;2024-03-08T01:46:42;10.95;;;5.82;;
77870;SDS011;67067;46.850;7.578;2024-03-08T01:47:46;10.68;;;5.75;;
77870;SDS011;67067;46.850;7.578;2024-03-08T01:48:50;12.65;;;6.00;;
77870;SDS011;67067;46.850;7.578;2024-03-08T01:49:54;12.32;;;6.10;;
77870;SDS011;67067;46.850;7.578;2024-03-08T01:50:56;12.07;;;6.22;;
77870;SDS011;67067;46.850;7.578;2024-03-08T01:51:59;13.60;;;6.35;;
77870;SDS011;67067;46.850;7.578;2024-03-08T01:53:03;13.73;;;6.70;;
77870;SDS011;67067;46.850;7.578;2024-03-08T01:54:06;15.93;;;6.97;;
77870;SDS011;67067;46.850;7.578;2024-03-08T01:55:11;12.52;;;6.15;;
77870;SDS011;67067;46.850;7.578;2024-03-08T01:56:17;13.80;;;6.57;;
77870;SDS011;67067;46.850;7.578;2024-03-08T01:57:19;14.60;;;6.60;;
77870;SDS011;67067;46.850;7.578;2024-03-08T01:58:28;14.38;;;6.65;;
77870;SDS011;67067;46.850;7.578;2024-03-08T01:59:31;12.57;;;6.32;;
77870;SDS011;67067;46.850;7.578;2024-03-08T02:12:42;13.23;;;6.85;;
77870;SDS011;67067;46.850;7.578;2024-03-08T02:13:44;12.27;;;6.35;;
77870;SDS011;67067;46.850;7.578;2024-03-08T02:14:46;15.10;;;7.00;;
77870;SDS011;67067;46.850;7.578;2024-03-08T02:15:54;14.70;;;7.32;;
77870;SDS011;67067;46.850;7.578;2024-03-08T02:17:01;18.02;;;8.82;;
77870;SDS011;67067;46.850;7.578;2024-03-08T02:18:03;16.92;;;7.57;;
77870;SDS011;67067;46.850;7.578;2024-03-08T02:19:06;16.33;;;7.95;;
77870;SDS011;67067;46.850;7.578;2024-03-08T02:20:11;17.70;;;7.43;;
77870;SDS011;67067;46.850;7.578;2024-03-08T02:21:16;13.57;;;6.65;;
77870;SDS011;67067;46.850;7.578;2024-03-08T02:22:22;13.98;;;7.13;;
77870;SDS011;67067;46.850;7.578;2024-03-08T02:23:24;15.73;;;6.88;;
77870;SDS011;67067;46.850;7.578;2024-03-08T02:24:31;14.93;;;7.22;;
77870;SDS011;67067;46.850;7.578;2024-03-08T02:25:36;15.32;;;6.60;;
77870;SDS011;67067;46.850;7.578;2024-03-08T02:26:38;13.52;;;6.72;;
77870;SDS011;67067;46.850;7.578;2024-03-08T02:28:41;13.27;;;6.40;;
77870;SDS011;67067;46.850;7.578;2024-03-08T02:29:45;12.93;;;6.18;;
77870;SDS011;67067;46.850;7.578;2024-03-08T02:30:47;13.38;;;6.45;;
77870;SDS011;67067;46.850;7.578;2024-03-08T02:31:53;11.15;;;5.85;;
77870;SDS011;67067;46.850;7.578;2024-03-08T02:32:57;16.15;;;7.53;;
77870;SDS011;67067;46.850;7.578;2024-03-08T02:33:59;12.13;;;6.50;;
77870;SDS011;67067;46.850;7.578;2024-03-08T02:35:03;16.70;;;7.32;;
77870;SDS011;67067;46.850;7.578;2024-03-08T02:36:07;11.75;;;6.43;;
77870;SDS011;67067;46.850;7.578;2024-03-08T02:37:09;14.88;;;6.68;;
77870;SDS011;67067;46.850;7.578;2024-03-08T02:39:14;14.13;;;6.47;;
77870;SDS011;67067;46.850;7.578;2024-03-08T02:40:17;16.65;;;6.97;;
77870;SDS011;67067;46.850;7.578;2024-03-08T02:41:21;14.30;;;6.88;;
77870;SDS011;67067;46.850;7.578;2024-03-08T02:42:23;14.93;;;7.13;;
77870;SDS011;67067;46.850;7.578;2024-03-08T02:43:25;11.70;;;6.32;;
77870;SDS011;67067;46.850;7.578;2024-03-08T02:45:29;12.43;;;6.30;;
77870;SDS011;67067;46.850;7.578;2024-03-08T02:46:33;14.00;;;6.65;;
77870;SDS011;67067;46.850;7.578;2024-03-08T02:47:37;14.18;;;6.57;;
77870;SDS011;67067;46.850;7.578;2024-03-08T02:48:41;11.73;;;6.30;;
77870;SDS011;67067;46.850;7.578;2024-03-08T02:49:43;14.05;;;6.80;;
77870;SDS011;67067;46.850;7.578;2024-03-08T02:51:47;11.82;;;6.35;;
77870;SDS011;67067;46.850;7.578;2024-03-08T02:53:51;15.32;;;6.43;;
77870;SDS011;67067;46.850;7.578;2024-03-08T02:54:53;12.95;;;5.93;;
77870;SDS011;67067;46.850;7.578;2024-03-08T02:56:59;13.77;;;6.18;;
77870;SDS011;67067;46.850;7.578;2024-03-08T02:58:03;11.20;;;5.82;;
77870;SDS011;67067;46.850;7.578;2024-03-08T02:59:05;12.45;;;6.10;;
77870;SDS011;67067;46.850;7.578;2024-03-08T03:00:08;12.52;;;5.80;;
77870;SDS011;67067;46.850;7.578;2024-03-08T03:01:11;12.48;;;5.95;;
77870;SDS011;67067;46.850;7.578;2024-03-08T03:03:14;11.88;;;5.75;;
77870;SDS011;67067;46.850;7.578;2024-03-08T03:04:16;11.95;;;5.97;;
77870;SDS011;67067;46.850;7.578;2024-03-08T03:05:20;13.57;;;6.30;;
77870;SDS011;67067;46.850;7.578;2024-03-08T03:06:22;11.93;;;6.50;;
77870;SDS011;67067;46.850;7.578;2024-03-08T03:07:24;12.88;;;6.20;;
77870;SDS011;67067;46.850;7.578;2024-03-08T03:08:28;13.25;;;6.38;;
77870;SDS011;67067;46.850;7.578;2024-03-08T03:09:30;15.65;;;6.60;;
77870;SDS011;67067;46.850;7.578;2024-03-08T03:10:34;11.98;;;6.28;;
77870;SDS011;67067;46.850;7.578;2024-03-08T03:11:37;12.48;;;6.20;;
77870;SDS011;67067;46.850;7.578;2024-03-08T03:12:39;13.60;;;6.13;;
77870;SDS011;67067;46.850;7.578;2024-03-08T03:14:43;11.75;;;6.05;;
77870;SDS011;67067;46.850;7.578;2024-03-08T03:16:47;13.02;;;5.80;;
77870;SDS011;67067;46.850;7.578;2024-03-08T03:17:52;14.35;;;6.50;;
77870;SDS011;67067;46.850;7.578;2024-03-08T03:18:56;15.82;;;7.20;;
77870;SDS011;67067;46.850;7.578;2024-03-08T03:20:08;12.43;;;6.22;;
77870;SDS011;67067;46.850;7.578;2024-03-08T03:21:11;23.02;;;9.50;;
77870;SDS011;67067;46.850;7.578;2024-03-08T03:22:14;26.02;;;10.98;;
77870;SDS011;67067;46.850;7.578;2024-03-08T03:23:17;14.95;;;7.20;;
77870;SDS011;67067;46.850;7.578;2024-03-08T03:24:22;13.90;;;6.70;;
77870;SDS011;67067;46.850;7.578;2024-03-08T03:25:24;14.25;;;6.60;;
77870;SDS011;67067;46.850;7.578;2024-03-08T03:26:30;12.52;;;6.35;;
77870;SDS011;67067;46.850;7.578;2024-03-08T03:27:33;14.40;;;6.55;;
77870;SDS011;67067;46.850;7.578;2024-03-08T03:29:39;14.00;;;5.93;;
77870;SDS011;67067;46.850;7.578;2024-03-08T03:30:46;13.25;;;6.00;;
77870;SDS011;67067;46.850;7.578;2024-03-08T03:31:48;12.57;;;6.00;;
77870;SDS011;67067;46.850;7.578;2024-03-08T03:32:53;10.95;;;5.68;;
77870;SDS011;67067;46.850;7.578;2024-03-08T03:34:01;12.38;;;6.10;;
77870;SDS011;67067;46.850;7.578;2024-03-08T03:35:05;12.77;;;5.97;;
77870;SDS011;67067;46.850;7.578;2024-03-08T03:36:09;14.30;;;6.53;;
77870;SDS011;67067;46.850;7.578;2024-03-08T03:37:11;13.27;;;6.50;;
77870;SDS011;67067;46.850;7.578;2024-03-08T03:38:18;14.27;;;6.20;;
77870;SDS011;67067;46.850;7.578;2024-03-08T03:39:22;14.20;;;6.70;;
77870;SDS011;67067;46.850;7.578;2024-03-08T03:40:24;15.35;;;6.40;;
77870;SDS011;67067;46.850;7.578;2024-03-08T03:41:26;14.70;;;6.63;;
77870;SDS011;67067;46.850;7.578;2024-03-08T03:42:31;14.80;;;6.95;;
77870;SDS011;67067;46.850;7.578;2024-03-08T03:43:33;13.52;;;6.35;;
77870;SDS011;67067;46.850;7.578;2024-03-08T03:45:39;13.00;;;6.05;;
77870;SDS011;67067;46.850;7.578;2024-03-08T03:46:43;16.05;;;6.70;;
77870;SDS011;67067;46.850;7.578;2024-03-08T03:47:46;13.57;;;6.00;;
77870;SDS011;67067;46.850;7.578;2024-03-08T03:48:48;12.57;;;6.50;;
77870;SDS011;67067;46.850;7.578;2024-03-08T03:49:50;12.60;;;6.28;;
77870;SDS011;67067;46.850;7.578;2024-03-08T03:51:53;13.48;;;6.07;;
77870;SDS011;67067;46.850;7.578;2024-03-08T03:53:57;14.45;;;6.47;;
77870;SDS011;67067;46.850;7.578;2024-03-08T03:54:59;15.07;;;6.20;;
77870;SDS011;67067;46.850;7.578;2024-03-08T03:56:01;15.25;;;6.45;;
77870;SDS011;67067;46.850;7.578;2024-03-08T03:58:04;14.65;;;6.88;;
77870;SDS011;67067;46.850;7.578;2024-03-08T03:59:09;15.63;;;6.97;;
77870;SDS011;67067;46.850;7.578;2024-03-08T04:00:18;14.63;;;6.30;;
77870;SDS011;67067;46.850;7.578;2024-03-08T04:01:20;15.45;;;6.68;;
77870;SDS011;67067;46.850;7.578;2024-03-08T04:02:25;15.25;;;7.07;;
77870;SDS011;67067;46.850;7.578;2024-03-08T04:03:27;14.93;;;6.80;;
77870;SDS011;67067;46.850;7.578;2024-03-08T04:04:29;13.85;;;6.28;;
77870;SDS011;67067;46.850;7.578;2024-03-08T04:06:35;15.48;;;6.53;;
77870;SDS011;67067;46.850;7.578;2024-03-08T04:07:37;16.45;;;6.38;;
77870;SDS011;67067;46.850;7.578;2024-03-08T04:08:40;13.32;;;6.50;;
77870;SDS011;67067;46.850;7.578;2024-03-08T04:09:42;15.38;;;6.88;;
77870;SDS011;67067;46.850;7.578;2024-03-08T04:11:48;14.15;;;6.50;;
77870;SDS011;67067;46.850;7.578;2024-03-08T04:12:51;11.55;;;5.53;;
77870;SDS011;67067;46.850;7.578;2024-03-08T04:13:54;10.65;;;5.30;;
77870;SDS011;67067;46.850;7.578;2024-03-08T04:14:56;12.20;;;5.78;;
77870;SDS011;67067;46.850;7.578;2024-03-08T04:15:57;15.65;;;6.85;;
77870;SDS011;67067;46.850;7.578;2024-03-08T04:16:59;15.85;;;6.18;;
77870;SDS011;67067;46.850;7.578;2024-03-08T04:18:01;13.88;;;6.18;;
77870;SDS011;67067;46.850;7.578;2024-03-08T04:19:03;11.60;;;5.88;;
77870;SDS011;67067;46.850;7.578;2024-03-08T04:20:06;13.68;;;5.93;;
77870;SDS011;67067;46.850;7.578;2024-03-08T04:21:16;13.13;;;6.00;;
77870;SDS011;67067;46.850;7.578;2024-03-08T04:22:20;12.65;;;5.78;;
77870;SDS011;67067;46.850;7.578;2024-03-08T04:24:24;9.77;;;5.25;;
77870;SDS011;67067;46.850;7.578;2024-03-08T04:25:26;12.15;;;5.50;;
77870;SDS011;67067;46.850;7.578;2024-03-08T04:26:28;13.02;;;6.07;;
77870;SDS011;67067;46.850;7.578;2024-03-08T04:27:33;14.55;;;6.22;;
77870;SDS011;67067;46.850;7.578;2024-03-08T04:28:35;12.60;;;5.90;;
77870;SDS011;67067;46.850;7.578;2024-03-08T04:29:38;12.60;;;6.30;;
77870;SDS011;67067;46.850;7.578;2024-03-08T04:30:41;14.00;;;6.85;;
77870;SDS011;67067;46.850;7.578;2024-03-08T04:32:44;14.27;;;6.80;;
77870;SDS011;67067;46.850;7.578;2024-03-08T04:33:46;14.68;;;6.57;;
77870;SDS011;67067;46.850;7.578;2024-03-08T04:34:48;13.98;;;6.70;;
77870;SDS011;67067;46.850;7.578;2024-03-08T04:35:51;13.98;;;6.78;;
77870;SDS011;67067;46.850;7.578;2024-03-08T04:36:53;12.10;;;6.53;;
77870;SDS011;67067;46.850;7.578;2024-03-08T04:38:59;11.48;;;5.93;;
77870;SDS011;67067;46.850;7.578;2024-03-08T04:40:01;14.07;;;6.13;;
77870;SDS011;67067;46.850;7.578;2024-03-08T04:41:03;14.02;;;6.22;;
77870;SDS011;67067;46.850;7.578;2024-03-08T04:42:05;15.85;;;6.80;;
77870;SDS011;67067;46.850;7.578;2024-03-08T04:43:12;13.57;;;6.40;;
77870;SDS011;67067;46.850;7.578;2024-03-08T04:44:16;12.65;;;6.30;;
77870;SDS011;67067;46.850;7.578;2024-03-08T04:45:19;16.08;;;6.90;;
77870;SDS011;67067;46.850;7.578;2024-03-08T04:46:21;16.60;;;7.13;;
77870;SDS011;67067;46.850;7.578;2024-03-08T04:48:27;23.00;;;8.55;;
77870;SDS011;67067;46.850;7.578;2024-03-08T04:49:29;32.65;;;9.10;;
77870;SDS011;67067;46.850;7.578;2024-03-08T04:51:33;83.30;;;12.38;;
77870;SDS011;67067;46.850;7.578;2024-03-08T04:52:37;93.65;;;12.57;;
77870;SDS011;67067;46.850;7.578;2024-03-08T04:54:41;103.07;;;13.82;;
77870;SDS011;67067;46.850;7.578;2024-03-08T04:55:46;86.20;;;13.23;;
77870;SDS011;67067;46.850;7.578;2024-03-08T04:56:48;99.35;;;13.88;;
77870;SDS011;67067;46.850;7.578;2024-03-08T04:57:50;135.70;;;15.70;;
77870;SDS011;67067;46.850;7.578;2024-03-08T04:59:53;71.38;;;12.30;;
77870;SDS011;67067;46.850;7.578;2024-03-08T05:02:21;56.15;;;10.93;;
77870;SDS011;67067;46.850;7.578;2024-03-08T05:03:24;89.40;;;12.57;;
77870;SDS011;67067;46.850;7.578;2024-03-08T05:04:28;37.00;;;9.80;;
77870;SDS011;67067;46.850;7.578;2024-03-08T05:05:30;195.23;;;20.98;;
77870;SDS011;67067;46.850;7.578;2024-03-08T05:06:34;124.20;;;17.05;;
77870;SDS011;67067;46.850;7.578;2024-03-08T05:07:40;92.72;;;13.40;;
77870;SDS011;67067;46.850;7.578;2024-03-08T05:08:42;85.82;;;13.18;;
77870;SDS011;67067;46.850;7.578;2024-03-08T05:09:44;76.28;;;12.93;;
77870;SDS011;67067;46.850;7.578;2024-03-08T05:10:52;131.63;;;15.85;;
77870;SDS011;67067;46.850;7.578;2024-03-08T05:11:55;146.88;;;19.65;;
77870;SDS011;67067;46.850;7.578;2024-03-08T05:12:58;80.63;;;11.45;;
77870;SDS011;67067;46.850;7.578;2024-03-08T05:13:59;64.03;;;12.68;;
77870;SDS011;67067;46.850;7.578;2024-03-08T05:15:02;110.38;;;13.57;;
77870;SDS011;67067;46.850;7.578;2024-03-08T05:16:04;88.03;;;13.93;;
77870;SDS011;67067;46.850;7.578;2024-03-08T05:17:06;77.13;;;12.15;;
77870;SDS011;67067;46.850;7.578;2024-03-08T05:18:13;76.47;;;13.38;;
77870;SDS011;67067;46.850;7.578;2024-03-08T05:19:16;66.55;;;13.38;;
77870;SDS011;67067;46.850;7.578;2024-03-08T05:20:19;84.25;;;28.20;;
77870;SDS011;67067;46.850;7.578;2024-03-08T05:21:20;32.90;;;18.05;;
77870;SDS011;67067;46.850;7.578;2024-03-08T05:23:24;60.45;;;14.15;;
77870;SDS011;67067;46.850;7.578;2024-03-08T05:24:26;63.35;;;14.32;;
77870;SDS011;67067;46.850;7.578;2024-03-08T05:25:31;52.10;;;11.65;;
77870;SDS011;67067;46.850;7.578;2024-03-08T05:26:33;71.20;;;12.98;;
77870;SDS011;67067;46.850;7.578;2024-03-08T05:27:35;47.08;;;11.30;;
77870;SDS011;67067;46.850;7.578;2024-03-08T05:28:37;65.75;;;14.15;;
77870;SDS011;67067;46.850;7.578;2024-03-08T05:29:39;32.20;;;11.43;;
77870;SDS011;67067;46.850;7.578;2024-03-08T05:30:41;34.35;;;12.65;;
77870;SDS011;67067;46.850;7.578;2024-03-08T05:31:46;27.35;;;11.65;;
77870;SDS011;67067;46.850;7.578;2024-03-08T05:32:51;19.42;;;8.48;;
77870;SDS011;67067;46.850;7.578;2024-03-08T05:33:53;22.70;;;9.80;;
77870;SDS011;67067;46.850;7.578;2024-03-08T05:34:58;25.08;;;9.13;;
77870;SDS011;67067;46.850;7.578;2024-03-08T05:36:00;25.88;;;10.73;;
77870;SDS011;67067;46.850;7.578;2024-03-08T05:37:03;22.42;;;8.93;;
77870;SDS011;67067;46.850;7.578;2024-03-08T05:38:05;38.88;;;11.00;;
77870;SDS011;67067;46.850;7.578;2024-03-08T05:39:11;32.25;;;10.75;;
77870;SDS011;67067;46.850;7.578;2024-03-08T05:40:16;27.10;;;10.15;;
77870;SDS011;67067;46.850;7.578;2024-03-08T05:41:21;39.42;;;11.55;;
77870;SDS011;67067;46.850;7.578;2024-03-08T05:42:22;30.98;;;10.35;;
77870;SDS011;67067;46.850;7.578;2024-03-08T05:43:26;49.60;;;14.45;;
77870;SDS011;67067;46.850;7.578;2024-03-08T05:45:32;43.72;;;13.52;;
77870;SDS011;67067;46.850;7.578;2024-03-08T05:46:36;30.23;;;10.70;;
77870;SDS011;67067;46.850;7.578;2024-03-08T05:47:41;21.75;;;9.57;;
77870;SDS011;67067;46.850;7.578;2024-03-08T05:48:43;23.65;;;9.48;;
77870;SDS011;67067;46.850;7.578;2024-03-08T05:49:45;25.30;;;9.30;;
77870;SDS011;67067;46.850;7.578;2024-03-08T05:50:47;20.00;;;8.38;;
77870;SDS011;67067;46.850;7.578;2024-03-08T05:51:49;18.83;;;8.45;;
77870;SDS011;67067;46.850;7.578;2024-03-08T05:54:57;16.20;;;7.03;;
77870;SDS011;67067;46.850;7.578;2024-03-08T05:55:59;18.52;;;7.63;;
77870;SDS011;67067;46.850;7.578;2024-03-08T05:57:03;17.40;;;7.40;;
77870;SDS011;67067;46.850;7.578;2024-03-08T05:58:10;16.98;;;7.15;;
77870;SDS011;67067;46.850;7.578;2024-03-08T05:59:13;14.18;;;6.88;;
77870;SDS011;67067;46.850;7.578;2024-03-08T06:00:15;15.52;;;6.85;;
77870;SDS011;67067;46.850;7.578;2024-03-08T06:01:17;16.40;;;6.80;;
77870;SDS011;67067;46.850;7.578;2024-03-08T06:02:19;19.70;;;7.90;;
77870;SDS011;67067;46.850;7.578;2024-03-08T06:04:23;22.33;;;8.77;;
77870;SDS011;67067;46.850;7.578;2024-03-08T06:06:27;25.23;;;10.70;;
77870;SDS011;67067;46.850;7.578;2024-03-08T06:07:28;26.05;;;10.65;;
77870;SDS011;67067;46.850;7.578;2024-03-08T06:08:34;27.05;;;11.30;;
77870;SDS011;67067;46.850;7.578;2024-03-08T06:09:36;24.13;;;9.80;;
77870;SDS011;67067;46.850;7.578;2024-03-08T06:10:41;24.60;;;9.93;;
77870;SDS011;67067;46.850;7.578;2024-03-08T06:11:46;24.17;;;9.48;;
77870;SDS011;67067;46.850;7.578;2024-03-08T06:12:48;21.85;;;9.10;;
77870;SDS011;67067;46.850;7.578;2024-03-08T06:13:50;25.77;;;10.23;;
77870;SDS011;67067;46.850;7.578;2024-03-08T06:14:51;19.95;;;9.35;;
77870;SDS011;67067;46.850;7.578;2024-03-08T06:15:53;19.40;;;8.32;;
77870;SDS011;67067;46.850;7.578;2024-03-08T06:16:55;18.08;;;7.82;;
77870;SDS011;67067;46.850;7.578;2024-03-08T06:18:59;16.20;;;7.22;;
77870;SDS011;67067;46.850;7.578;2024-03-08T06:20:03;18.90;;;7.80;;
77870;SDS011;67067;46.850;7.578;2024-03-08T06:21:11;15.63;;;7.22;;
77870;SDS011;67067;46.850;7.578;2024-03-08T06:22:14;16.45;;;7.93;;
77870;SDS011;67067;46.850;7.578;2024-03-08T06:23:18;18.50;;;7.70;;
77870;SDS011;67067;46.850;7.578;2024-03-08T06:25:21;17.05;;;8.25;;
77870;SDS011;67067;46.850;7.578;2024-03-08T06:26:23;15.90;;;7.13;;
77870;SDS011;67067;46.850;7.578;2024-03-08T06:27:33;16.25;;;7.50;;
77870;SDS011;67067;46.850;7.578;2024-03-08T06:28:35;16.67;;;7.88;;
77870;SDS011;67067;46.850;7.578;2024-03-08T06:29:41;16.50;;;7.72;;
77870;SDS011;67067;46.850;7.578;2024-03-08T06:30:43;15.07;;;7.78;;
77870;SDS011;67067;46.850;7.578;2024-03-08T06:31:45;15.88;;;7.50;;
77870;SDS011;67067;46.850;7.578;2024-03-08T06:32:47;16.00;;;7.60;;
77870;SDS011;67067;46.850;7.578;2024-03-08T06:35:53;16.88;;;7.20;;
77870;SDS011;67067;46.850;7.578;2024-03-08T06:36:59;17.90;;;7.65;;
77870;SDS011;67067;46.850;7.578;2024-03-08T06:38:06;17.50;;;7.47;;
77870;SDS011;67067;46.850;7.578;2024-03-08T06:39:08;17.60;;;7.95;;
77870;SDS011;67067;46.850;7.578;2024-03-08T06:40:12;21.50;;;7.68;;
77870;SDS011;67067;46.850;7.578;2024-03-08T06:41:15;15.55;;;7.18;;
77870;SDS011;67067;46.850;7.578;2024-03-08T06:42:20;15.48;;;6.57;;
77870;SDS011;67067;46.850;7.578;2024-03-08T06:43:22;14.32;;;6.55;;
77870;SDS011;67067;46.850;7.578;2024-03-08T06:44:26;14.95;;;6.97;;
77870;SDS011;67067;46.850;7.578;2024-03-08T06:45:28;16.30;;;7.07;;
77870;SDS011;67067;46.850;7.578;2024-03-08T06:46:33;15.57;;;7.05;;
77870;SDS011;67067;46.850;7.578;2024-03-08T06:47:35;14.07;;;6.97;;
77870;SDS011;67067;46.850;7.578;2024-03-08T06:48:39;16.88;;;7.55;;
77870;SDS011;67067;46.850;7.578;2024-03-08T06:49:47;16.70;;;7.60;;
77870;SDS011;67067;46.850;7.578;2024-03-08T06:50:51;16.15;;;7.40;;
77870;SDS011;67067;46.850;7.578;2024-03-08T06:51:52;16.98;;;7.43;;
77870;SDS011;67067;46.850;7.578;2024-03-08T06:52:58;18.55;;;7.65;;
77870;SDS011;67067;46.850;7.578;2024-03-08T06:54:00;17.20;;;7.22;;
77870;SDS011;67067;46.850;7.578;2024-03-08T06:55:03;19.45;;;7.72;;
77870;SDS011;67067;46.850;7.578;2024-03-08T06:56:06;17.40;;;8.35;;
77870;SDS011;67067;46.850;7.578;2024-03-08T06:57:11;13.98;;;7.07;;
77870;SDS011;67067;46.850;7.578;2024-03-08T06:58:13;16.13;;;7.45;;
77870;SDS011;67067;46.850;7.578;2024-03-08T06:59:15;16.23;;;7.50;;
77870;SDS011;67067;46.850;7.578;2024-03-08T07:00:19;21.13;;;8.23;;
77870;SDS011;67067;46.850;7.578;2024-03-08T07:01:22;16.08;;;7.35;;
77870;SDS011;67067;46.850;7.578;2024-03-08T07:02:24;15.65;;;7.35;;
77870;SDS011;67067;46.850;7.578;2024-03-08T07:04:31;16.95;;;7.18;;
77870;SDS011;67067;46.850;7.578;2024-03-08T07:05:37;16.95;;;7.22;;
77870;SDS011;67067;46.850;7.578;2024-03-08T07:06:39;14.20;;;7.20;;
77870;SDS011;67067;46.850;7.578;2024-03-08T07:07:43;15.50;;;7.25;;
77870;SDS011;67067;46.850;7.578;2024-03-08T07:08:45;16.40;;;7.40;;
77870;SDS011;67067;46.850;7.578;2024-03-08T07:09:47;19.25;;;7.45;;
77870;SDS011;67067;46.850;7.578;2024-03-08T07:10:50;14.00;;;6.90;;
77870;SDS011;67067;46.850;7.578;2024-03-08T07:11:52;12.57;;;6.47;;
77870;SDS011;67067;46.850;7.578;2024-03-08T07:12:56;12.52;;;6.35;;
77870;SDS011;67067;46.850;7.578;2024-03-08T07:13:58;12.65;;;6.35;;
77870;SDS011;67067;46.850;7.578;2024-03-08T07:15:00;14.75;;;6.82;;
77870;SDS011;67067;46.850;7.578;2024-03-08T07:17:03;13.73;;;6.93;;